Time;durP1;ratioP1;P1;durP2;ratioP2;P2;SDS_P1;SDS_P2;PMS_P1;PMS_P2;Temp;Humidity;BMP_temperature;BMP_pressure;BME280_temperature;BME280_humidity;BME280_pressure;Samples;Min_cycle;Max_cycle;Signal;HPM_P1;HPM_P2
2022/11/25 00:04:20;;;;;;;;;;;16.50;72.30;;;;;;10386457;28;19934;-68
2022/11/25 00:09:22;;;;;;;;;;;16.50;72.40;;;;;;10386403;28;20417;-67
2022/11/25 00:14:23;;;;;;;;;;;16.50;72.30;;;;;;10368013;28;20040;-69
2022/11/25 00:19:25;;;;;;;;;;;16.40;72.20;;;;;;10386973;28;19940;-67
2022/11/25 00:24:27;;;;;;;;;;;16.40;72.20;;;;;;10386389;28;19934;-68
2022/11/25 00:29:29;;;;;;;;;;;16.40;72.20;;;;;;10385587;28;19934;-67
2022/11/25 00:34:31;;;;;;;;;;;16.40;72.20;;;;;;10386742;28;19969;-68
2022/11/25 00:39:33;;;;;;;;;;;16.40;72.20;;;;;;10385554;28;19933;-68
2022/11/25 00:44:34;;;;;;;;;;;16.40;72.20;;;;;;10385691;28;20025;-68
2022/11/25 00:49:38;;;;;;;;;;;16.40;72.20;;;;;;10368089;28;19934;-68
2022/11/25 00:54:40;;;;;;;;;;;16.40;72.20;;;;;;10384766;28;19940;-69
2022/11/25 00:59:41;;;;;;;;;;;16.30;72.20;;;;;;10385470;28;19973;-69
2022/11/25 01:04:44;;;;;;;;;;;16.30;72.10;;;;;;10384122;28;19938;-68
2022/11/25 01:09:46;;;;;;;;;;;16.30;72.10;;;;;;10384884;28;20048;-69
2022/11/25 01:14:48;;;;;;;;;;;16.30;72.20;;;;;;10384124;28;19937;-68
2022/11/25 01:19:50;;;;;;;;;;;16.30;72.00;;;;;;10385104;28;19941;-67
2022/11/25 01:24:52;;;;;;;;;;;16.30;72.10;;;;;;10383951;28;20033;-67
2022/11/25 01:29:53;;;;;;;;;;;16.30;72.10;;;;;;10383845;28;20040;-69
2022/11/25 01:34:55;;;;;;;;;;;16.30;72.10;;;;;;10383788;28;19934;-69
2022/11/25 01:39:57;;;;;;;;;;;16.30;72.10;;;;;;10383635;28;19980;-68
2022/11/25 01:45:18;;;;;;;;;;;16.30;72.00;;;;;;10384034;28;19934;-69
2022/11/25 01:50:21;;;;;;;;;;;16.30;72.00;;;;;;10383021;28;20360;-68
2022/11/25 01:55:26;;;;;;;;;;;16.30;72.00;;;;;;10383127;28;20364;-69
2022/11/25 02:06:01;;;;;;;;;;;16.30;72.00;;;;;;10550573;23;20347;-68
2022/11/25 02:11:03;;;;;;;;;;;16.30;71.90;;;;;;10382439;28;19934;-68
2022/11/25 02:16:05;;;;;;;;;;;16.20;71.90;;;;;;10383165;28;20324;-68
2022/11/25 02:21:07;;;;;;;;;;;16.20;71.90;;;;;;10382547;28;20029;-68
2022/11/25 02:26:09;;;;;;;;;;;16.20;71.90;;;;;;10383616;28;19933;-69
2022/11/25 02:31:10;;;;;;;;;;;16.20;71.90;;;;;;10383130;28;20597;-69
2022/11/25 02:36:17;;;;;;;;;;;16.20;71.90;;;;;;10381994;28;20289;-68
2022/11/25 02:41:32;;;;;;;;;;;16.20;72.00;;;;;;10382188;28;20028;-69
2022/11/25 02:46:33;;;;;;;;;;;16.20;72.00;;;;;;10381317;28;19940;-69
2022/11/25 02:51:36;;;;;;;;;;;16.20;71.90;;;;;;10382261;28;19934;-68
2022/11/25 02:56:38;;;;;;;;;;;16.20;71.90;;;;;;10379996;28;20428;-68
2022/11/25 03:01:40;;;;;;;;;;;16.10;71.90;;;;;;10382163;28;19934;-68
2022/11/25 03:06:42;;;;;;;;;;;16.10;71.90;;;;;;10380511;28;20030;-68
2022/11/25 03:17:04;;;;;;;;;;;16.10;71.90;;;;;;10387432;28;20028;-69
2022/11/25 03:22:05;;;;;;;;;;;16.10;71.90;;;;;;10388575;28;20460;-68
2022/11/25 03:27:07;;;;;;;;;;;16.10;71.90;;;;;;10386505;28;19934;-68
2022/11/25 03:32:09;;;;;;;;;;;16.10;71.90;;;;;;10388537;28;19940;-67
2022/11/25 03:37:10;;;;;;;;;;;16.10;72.00;;;;;;10388387;28;19973;-67
2022/11/25 03:42:12;;;;;;;;;;;16.10;71.90;;;;;;10386091;28;19934;-68
2022/11/25 03:47:14;;;;;;;;;;;16.10;72.00;;;;;;10387655;28;19937;-68
2022/11/25 03:52:16;;;;;;;;;;;16.10;72.00;;;;;;10387672;28;19934;-69
2022/11/25 03:57:18;;;;;;;;;;;16.10;72.00;;;;;;10387872;28;19934;-69
2022/11/25 04:02:20;;;;;;;;;;;16.10;72.10;;;;;;10386934;28;20020;-69
2022/11/25 04:07:21;;;;;;;;;;;16.10;72.00;;;;;;10387990;28;20400;-68
2022/11/25 04:17:44;;;;;;;;;;;16.10;72.10;;;;;;10385902;28;19940;-68
2022/11/25 04:22:46;;;;;;;;;;;16.10;72.10;;;;;;10385184;28;19993;-68
2022/11/25 04:27:47;;;;;;;;;;;16.00;72.00;;;;;;10386694;28;19940;-69
2022/11/25 04:32:49;;;;;;;;;;;16.00;72.00;;;;;;10384886;28;19940;-68
2022/11/25 04:37:51;;;;;;;;;;;16.00;71.90;;;;;;10386062;28;20016;-68
2022/11/25 04:42:52;;;;;;;;;;;16.00;71.90;;;;;;10385602;28;20028;-68
2022/11/25 04:48:03;;;;;;;;;;;16.00;72.00;;;;;;10385884;28;19934;-69
2022/11/25 04:53:04;;;;;;;;;;;16.10;72.00;;;;;;10385202;28;19933;-68
2022/11/25 04:58:06;;;;;;;;;;;16.10;71.90;;;;;;10385351;28;20021;-67
2022/11/25 05:03:08;;;;;;;;;;;16.10;71.90;;;;;;10384544;28;20851;-68
2022/11/25 05:08:10;;;;;;;;;;;16.10;71.90;;;;;;10384738;28;20971;-68
2022/11/25 05:13:11;;;;;;;;;;;16.00;71.80;;;;;;10384763;28;20315;-68
2022/11/25 05:18:13;;;;;;;;;;;16.00;71.80;;;;;;10384389;28;19989;-68
2022/11/25 05:23:14;;;;;;;;;;;16.00;72.90;;;;;;10383116;28;19940;-68
2022/11/25 05:28:16;;;;;;;;;;;16.00;71.80;;;;;;10384599;28;20016;-69
2022/11/25 05:33:18;;;;;;;;;;;16.00;71.90;;;;;;10382945;28;19933;-68
2022/11/25 05:38:19;;;;;;;;;;;16.00;71.90;;;;;;10385273;28;19933;-69
2022/11/25 05:43:21;;;;;;;;;;;16.00;72.00;;;;;;10382716;28;20493;-68
2022/11/25 05:48:23;;;;;;;;;;;16.00;72.00;;;;;;10384245;28;19964;-68
2022/11/25 05:53:24;;;;;;;;;;;16.10;72.20;;;;;;10384050;28;19933;-68
2022/11/25 05:58:29;;;;;;;;;;;16.20;71.90;;;;;;10383737;28;19969;-68
2022/11/25 06:03:31;;;;;;;;;;;16.30;71.60;;;;;;10381623;28;20041;-69
2022/11/25 06:08:33;;;;;;;;;;;16.40;71.30;;;;;;10382548;28;19940;-68
2022/11/25 06:13:35;;;;;;;;;;;16.50;71.20;;;;;;10381043;28;20042;-68
2022/11/25 06:18:37;;;;;;;;;;;16.60;71.20;;;;;;10382819;28;20000;-68
2022/11/25 06:23:39;;;;;;;;;;;16.60;71.10;;;;;;10383047;28;20027;-69
2022/11/25 06:28:41;;;;;;;;;;;16.60;71.20;;;;;;10382158;28;20345;-68
2022/11/25 06:33:45;;;;;;;;;;;16.60;71.20;;;;;;10382395;28;20024;-69
2022/11/25 06:38:48;;;;;;;;;;;16.50;71.20;;;;;;10380314;28;19965;-70
2022/11/25 06:43:50;;;;;;;;;;;16.50;71.20;;;;;;10380595;28;19973;-69
2022/11/25 06:48:52;;;;;;;;;;;16.50;71.60;;;;;;10380642;28;20427;-68
2022/11/25 06:53:54;;;;;;;;;;;16.50;71.90;;;;;;10381779;28;19934;-68
2022/11/25 06:58:55;;;;;;;;;;;16.50;72.00;;;;;;10381115;28;19984;-68
2022/11/25 07:04:02;;;;;;;;;;;16.40;72.00;;;;;;10362844;28;19989;-68
2022/11/25 07:09:03;;;;;;;;;;;16.40;72.30;;;;;;10372108;28;20327;-67
2022/11/25 07:14:06;;;;;;;;;;;16.40;73.00;;;;;;10374374;28;20476;-68
2022/11/25 07:19:09;;;;;;;;;;;16.50;73.20;;;;;;10371941;28;19965;-69
2022/11/25 07:24:12;;;;;;;;;;;16.50;73.30;;;;;;10372331;28;20493;-68
2022/11/25 07:29:14;;;;;;;;;;;16.50;73.10;;;;;;10372835;28;19934;-67
2022/11/25 07:34:36;;;;;;;;;;;16.40;72.80;;;;;;10371283;28;20016;-68
2022/11/25 07:39:38;;;;;;;;;;;16.40;72.80;;;;;;10371627;28;20024;-68
2022/11/25 07:44:40;;;;;;;;;;;16.40;72.90;;;;;;10372040;28;19944;-68
2022/11/25 07:49:42;;;;;;;;;;;16.30;72.70;;;;;;10372036;28;20036;-68
2022/11/25 07:54:43;;;;;;;;;;;16.30;72.70;;;;;;10371444;28;20036;-68
2022/11/25 07:59:45;;;;;;;;;;;16.30;72.80;;;;;;10376607;28;19934;-67
2022/11/25 08:04:47;;;;;;;;;;;16.30;72.80;;;;;;10377534;28;20024;-68
2022/11/25 08:09:50;;;;;;;;;;;16.30;72.80;;;;;;10374617;28;20020;-68
2022/11/25 08:14:52;;;;;;;;;;;16.30;72.80;;;;;;10378582;28;20045;-68
2022/11/25 08:19:54;;;;;;;;;;;16.30;72.80;;;;;;10378080;28;19934;-68
2022/11/25 08:24:56;;;;;;;;;;;16.30;72.80;;;;;;10376317;28;20629;-67
2022/11/25 08:29:58;;;;;;;;;;;16.30;72.70;;;;;;10377137;28;19988;-68
2022/11/25 08:34:59;;;;;;;;;;;16.30;72.70;;;;;;10377189;28;20000;-69
2022/11/25 08:40:02;;;;;;;;;;;16.20;72.70;;;;;;10378196;28;20000;-68
2022/11/25 08:45:04;;;;;;;;;;;16.20;72.60;;;;;;10376403;28;20028;-68
2022/11/25 08:50:07;;;;;;;;;;;16.30;72.60;;;;;;10377005;28;20053;-68
2022/11/25 08:55:09;;;;;;;;;;;16.30;72.60;;;;;;10376741;28;20028;-68
2022/11/25 09:00:11;;;;;;;;;;;16.30;72.60;;;;;;10376222;28;20068;-68
2022/11/25 09:05:14;;;;;;;;;;;16.30;72.50;;;;;;10370347;28;20048;-68
2022/11/25 09:10:19;;;;;;;;;;;16.30;72.50;;;;;;10374365;28;19933;-67
2022/11/25 09:15:21;;;;;;;;;;;16.30;72.40;;;;;;10376444;28;20021;-68
2022/11/25 09:20:22;;;;;;;;;;;16.30;72.40;;;;;;10376613;28;20040;-68
2022/11/25 09:25:24;;;;;;;;;;;16.30;72.30;;;;;;10374392;28;19934;-67
2022/11/25 09:30:26;;;;;;;;;;;16.40;72.30;;;;;;10376145;28;19940;-68
2022/11/25 09:35:27;;;;;;;;;;;16.40;72.30;;;;;;10376075;28;19934;-67
2022/11/25 09:40:35;;;;;;;;;;;16.40;72.50;;;;;;10374461;28;19934;-66
2022/11/25 09:51:26;;;;;;;;;;;16.40;73.50;;;;;;10367968;28;19933;-70
2022/11/25 09:56:28;;;;;;;;;;;16.40;72.60;;;;;;10357437;28;20051;-69
2022/11/25 10:01:30;;;;;;;;;;;16.40;72.60;;;;;;10374339;28;20426;-70
2022/11/25 10:06:35;;;;;;;;;;;16.40;72.70;;;;;;10375647;28;19934;-70
2022/11/25 10:11:45;;;;;;;;;;;16.30;72.50;;;;;;10375733;28;19934;-70
2022/11/25 10:16:53;;;;;;;;;;;16.30;72.60;;;;;;10375802;28;20107;-69
2022/11/25 10:21:55;;;;;;;;;;;16.30;72.60;;;;;;10374550;28;19934;-70
2022/11/25 10:26:57;;;;;;;;;;;16.30;72.50;;;;;;10376321;28;19934;-68
2022/11/25 10:32:04;;;;;;;;;;;16.30;72.50;;;;;;10375286;28;19996;-67
2022/11/25 10:37:11;;;;;;;;;;;16.40;72.40;;;;;;10374497;28;20008;-69
2022/11/25 10:42:17;;;;;;;;;;;16.40;72.30;;;;;;10374777;28;19934;-69
2022/11/25 10:47:32;;;;;;;;;;;16.40;72.30;;;;;;10375399;28;19977;-68
2022/11/25 10:52:58;;;;;;;;;;;16.50;72.30;;;;;;10375778;28;19934;-69
2022/11/25 10:58:19;;;;;;;;;;;16.50;72.10;;;;;;10368719;28;20016;-70
2022/11/25 11:03:22;;;;;;;;;;;16.60;72.00;;;;;;10373695;28;20026;-69
2022/11/25 11:08:26;;;;;;;;;;;16.60;72.00;;;;;;10374050;28;20539;-69
2022/11/25 11:13:31;;;;;;;;;;;16.70;71.90;;;;;;10373644;28;20315;-69
2022/11/25 11:18:36;;;;;;;;;;;16.80;71.90;;;;;;10374799;28;19981;-67
2022/11/25 11:23:48;;;;;;;;;;;16.90;71.70;;;;;;10372904;28;19940;-69
2022/11/25 11:28:57;;;;;;;;;;;17.00;71.40;;;;;;10373930;28;20052;-68
2022/11/25 11:34:05;;;;;;;;;;;17.10;71.00;;;;;;10379079;28;19941;-69
2022/11/25 11:39:25;;;;;;;;;;;17.30;70.80;;;;;;10380301;28;20004;-70
2022/11/25 11:44:39;;;;;;;;;;;17.30;70.60;;;;;;10379192;28;19940;-66
2022/11/25 11:49:49;;;;;;;;;;;17.30;70.40;;;;;;10379985;28;20028;-69
2022/11/25 11:55:02;;;;;;;;;;;17.30;70.50;;;;;;10363395;28;19981;-68
2022/11/25 12:00:05;;;;;;;;;;;17.30;70.60;;;;;;10379700;28;20019;-68
2022/11/25 12:05:10;;;;;;;;;;;17.20;70.70;;;;;;10378942;28;20076;-68
2022/11/25 12:10:18;;;;;;;;;;;17.20;70.80;;;;;;10380315;28;20517;-67
2022/11/25 12:15:32;;;;;;;;;;;17.20;71.00;;;;;;10379208;28;20061;-65
2022/11/25 12:20:37;;;;;;;;;;;17.10;71.00;;;;;;10379026;28;20021;-69
2022/11/25 12:25:40;;;;;;;;;;;17.10;71.20;;;;;;10378040;28;20061;-67
2022/11/25 12:30:57;;;;;;;;;;;17.00;71.30;;;;;;10359071;28;20020;-69
2022/11/25 12:36:16;;;;;;;;;;;17.00;71.50;;;;;;10378148;28;19944;-68
2022/11/25 12:41:29;;;;;;;;;;;17.00;71.60;;;;;;10378596;28;20725;-69
2022/11/25 12:46:44;;;;;;;;;;;17.00;71.50;;;;;;10380631;28;19969;-67
2022/11/25 12:52:05;;;;;;;;;;;17.00;71.50;;;;;;10384611;28;19984;-68
2022/11/25 12:57:09;;;;;;;;;;;17.00;71.60;;;;;;10385452;28;19975;-69
2022/11/25 13:02:23;;;;;;;;;;;17.00;71.80;;;;;;10383245;28;19977;-68
2022/11/25 13:07:51;;;;;;;;;;;17.00;71.70;;;;;;10384164;28;19944;-68
2022/11/25 13:13:03;;;;;;;;;;;17.10;71.70;;;;;;10367702;28;19940;-69
2022/11/25 13:18:13;;;;;;;;;;;17.00;71.60;;;;;;10383632;28;19956;-68
2022/11/25 13:23:15;;;;;;;;;;;17.00;71.70;;;;;;10383843;28;19984;-68
2022/11/25 13:28:26;;;;;;;;;;;17.00;71.70;;;;;;10382482;28;19934;-70
2022/11/25 13:33:28;;;;;;;;;;;17.00;71.70;;;;;;10384028;28;19933;-69
2022/11/25 13:38:33;;;;;;;;;;;17.10;71.60;;;;;;10382253;28;19973;-69
2022/11/25 13:43:34;;;;;;;;;;;17.00;71.50;;;;;;10383909;28;19934;-69
2022/11/25 13:48:36;;;;;;;;;;;17.00;71.60;;;;;;10382822;28;20036;-70
2022/11/25 13:53:38;;;;;;;;;;;17.00;71.60;;;;;;10383283;28;19940;-72
2022/11/25 13:59:00;;;;;;;;;;;17.10;72.20;;;;;;10383364;28;20064;-69
2022/11/25 14:04:10;;;;;;;;;;;17.10;73.50;;;;;;10383824;28;19934;-70
2022/11/25 14:09:21;;;;;;;;;;;17.40;76.80;;;;;;10383676;28;20016;-70
2022/11/25 14:14:23;;;;;;;;;;;17.60;73.80;;;;;;10383819;28;20020;-71
2022/11/25 14:19:43;;;;;;;;;;;17.70;72.80;;;;;;10385866;28;20292;-71
2022/11/25 14:25:11;;;;;;;;;;;17.70;72.30;;;;;;10413186;28;19937;-70
2022/11/25 14:30:13;;;;;;;;;;;17.80;72.30;;;;;;10423037;28;19934;-70
2022/11/25 14:35:22;;;;;;;;;;;17.80;72.30;;;;;;10423368;28;20020;-71
2022/11/25 14:40:35;;;;;;;;;;;17.80;72.70;;;;;;10423626;28;20037;-69
2022/11/25 14:45:37;;;;;;;;;;;17.80;72.70;;;;;;10423971;28;20012;-70
2022/11/25 14:50:39;;;;;;;;;;;17.80;72.40;;;;;;10423189;28;19945;-70
2022/11/25 14:55:46;;;;;;;;;;;17.80;72.10;;;;;;10422435;28;19934;-69
2022/11/25 15:00:52;;;;;;;;;;;17.80;71.90;;;;;;10422041;28;19933;-70
2022/11/25 15:05:56;;;;;;;;;;;17.90;71.80;;;;;;10423439;28;19934;-70
2022/11/25 15:10:58;;;;;;;;;;;17.90;71.60;;;;;;10428573;28;19933;-70
2022/11/25 15:16:05;;;;;;;;;;;17.90;71.60;;;;;;10428177;28;19933;-69
2022/11/25 15:21:11;;;;;;;;;;;17.90;71.60;;;;;;10429490;28;19934;-69
2022/11/25 15:26:20;;;;;;;;;;;17.80;71.60;;;;;;10428958;28;20488;-69
2022/11/25 15:31:25;;;;;;;;;;;17.70;71.50;;;;;;10427416;28;19933;-69
2022/11/25 15:36:27;;;;;;;;;;;17.70;71.60;;;;;;10426748;28;19934;-70
2022/11/25 15:41:34;;;;;;;;;;;17.60;71.60;;;;;;10428553;28;19933;-70
2022/11/25 15:46:36;;;;;;;;;;;17.50;71.70;;;;;;10427466;28;20182;-69
2022/11/25 15:51:48;;;;;;;;;;;17.50;71.70;;;;;;10428755;28;19933;-69
2022/11/25 15:56:52;;;;;;;;;;;17.40;71.90;;;;;;10427426;28;19976;-71
2022/11/25 16:01:54;;;;;;;;;;;17.50;71.90;;;;;;10426618;28;19940;-70
2022/11/25 16:06:58;;;;;;;;;;;17.50;71.70;;;;;;10426238;28;20323;-68
2022/11/25 16:12:04;;;;;;;;;;;17.70;72.20;;;;;;10424738;28;20064;-70
2022/11/25 16:17:09;;;;;;;;;;;17.90;73.60;;;;;;10424271;28;20512;-70
2022/11/25 16:22:12;;;;;;;;;;;18.30;71.90;;;;;;10426138;28;20049;-73
2022/11/25 16:27:15;;;;;;;;;;;18.50;71.20;;;;;;10425595;28;20027;-73
2022/11/25 16:32:22;;;;;;;;;;;18.50;70.70;;;;;;10425158;28;19941;-74
2022/11/25 16:37:24;;;;;;;;;;;18.50;70.50;;;;;;10426827;28;20008;-73
2022/11/25 16:42:26;;;;;;;;;;;18.50;70.70;;;;;;10425442;28;20403;-73
2022/11/25 16:47:28;;;;;;;;;;;18.50;71.70;;;;;;10426808;28;20701;-73
2022/11/25 16:52:29;;;;;;;;;;;18.50;72.00;;;;;;10395876;28;20011;-70
2022/11/25 16:57:32;;;;;;;;;;;18.60;71.70;;;;;;10385093;28;20025;-68
2022/11/25 17:02:34;;;;;;;;;;;18.70;70.60;;;;;;10384475;28;19988;-70
2022/11/25 17:07:36;;;;;;;;;;;18.90;71.10;;;;;;10383571;28;19941;-70
2022/11/25 17:12:39;;;;;;;;;;;19.00;70.90;;;;;;10382459;28;19933;-72
2022/11/25 17:17:42;;;;;;;;;;;19.10;70.40;;;;;;10384353;28;19972;-70
2022/11/25 17:22:43;;;;;;;;;;;19.10;70.10;;;;;;10383809;28;19934;-69
2022/11/25 17:27:45;;;;;;;;;;;19.30;70.20;;;;;;10384231;28;19933;-70
2022/11/25 17:32:50;;;;;;;;;;;19.40;69.80;;;;;;10383089;28;20025;-70
2022/11/25 17:37:52;;;;;;;;;;;19.40;69.50;;;;;;10383313;28;19973;-70
2022/11/25 17:42:54;;;;;;;;;;;19.30;69.70;;;;;;10382263;28;19969;-70
2022/11/25 17:47:56;;;;;;;;;;;19.20;70.00;;;;;;10364865;28;20016;-69
2022/11/25 17:52:57;;;;;;;;;;;19.10;70.30;;;;;;10381026;28;20462;-69
2022/11/25 17:57:59;;;;;;;;;;;19.00;71.60;;;;;;10381968;28;20365;-69
2022/11/25 18:03:01;;;;;;;;;;;18.90;71.50;;;;;;10382003;28;19934;-69
2022/11/25 18:08:03;;;;;;;;;;;18.80;71.30;;;;;;10381837;28;19937;-69
2022/11/25 18:13:05;;;;;;;;;;;18.70;71.50;;;;;;10381100;28;19934;-69
2022/11/25 18:18:14;;;;;;;;;;;18.60;71.70;;;;;;10380470;28;19980;-69
2022/11/25 18:23:16;;;;;;;;;;;18.50;71.90;;;;;;10380450;28;20368;-69
2022/11/25 18:28:20;;;;;;;;;;;18.40;72.30;;;;;;10381381;28;20016;-69
2022/11/25 18:33:22;;;;;;;;;;;18.50;72.60;;;;;;10381350;28;20028;-70
2022/11/25 18:38:24;;;;;;;;;;;18.60;72.80;;;;;;10380653;28;19933;-69
2022/11/25 18:43:26;;;;;;;;;;;18.60;73.90;;;;;;10380183;28;19941;-73
2022/11/25 18:48:27;;;;;;;;;;;18.70;74.00;;;;;;10381835;28;20017;-72
2022/11/25 18:53:29;;;;;;;;;;;18.80;73.70;;;;;;10381465;28;20032;-72
2022/11/25 18:58:31;;;;;;;;;;;18.90;73.60;;;;;;10380305;28;20004;-73
2022/11/25 19:03:33;;;;;;;;;;;18.90;73.50;;;;;;10379041;28;19940;-69
2022/11/25 19:08:35;;;;;;;;;;;18.80;73.50;;;;;;10380986;28;19977;-73
2022/11/25 19:13:37;;;;;;;;;;;18.80;73.40;;;;;;10379674;28;20581;-73
2022/11/25 19:18:39;;;;;;;;;;;18.80;73.50;;;;;;10382293;28;20020;-74
2022/11/25 19:23:40;;;;;;;;;;;18.70;73.30;;;;;;10379423;28;19984;-73
2022/11/25 19:28:44;;;;;;;;;;;18.70;73.10;;;;;;10380501;28;19969;-73
2022/11/25 19:33:47;;;;;;;;;;;18.60;73.10;;;;;;10380647;28;20033;-73
2022/11/25 19:38:49;;;;;;;;;;;18.60;73.00;;;;;;10379519;28;19977;-72
2022/11/25 19:43:51;;;;;;;;;;;18.50;73.00;;;;;;10379846;28;19996;-72
2022/11/25 19:48:54;;;;;;;;;;;18.50;73.10;;;;;;10379250;28;19965;-72
2022/11/25 19:53:56;;;;;;;;;;;18.40;73.10;;;;;;10384719;28;19934;-72
2022/11/25 19:58:57;;;;;;;;;;;18.30;73.10;;;;;;10386864;28;20022;-71
2022/11/25 20:03:59;;;;;;;;;;;18.30;73.30;;;;;;10384544;28;19933;-70
2022/11/25 20:09:01;;;;;;;;;;;18.20;73.10;;;;;;10385404;28;20542;-72
2022/11/25 20:14:08;;;;;;;;;;;18.20;73.00;;;;;;10385104;28;19940;-71
2022/11/25 20:19:14;;;;;;;;;;;18.10;72.90;;;;;;10385093;28;19934;-72
2022/11/25 20:24:18;;;;;;;;;;;18.10;73.00;;;;;;10384973;28;19934;-72
2022/11/25 20:29:20;;;;;;;;;;;18.10;74.00;;;;;;10384937;28;19969;-72
2022/11/25 20:34:30;;;;;;;;;;;18.00;73.20;;;;;;10384504;28;19934;-71
2022/11/25 20:39:31;;;;;;;;;;;18.00;73.10;;;;;;10384218;28;19961;-72
2022/11/25 20:44:33;;;;;;;;;;;17.90;73.20;;;;;;10384547;28;19969;-72
2022/11/25 20:49:36;;;;;;;;;;;17.90;73.20;;;;;;10383016;28;19938;-71
2022/11/25 20:54:38;;;;;;;;;;;17.90;73.40;;;;;;10383611;28;20012;-72
2022/11/25 20:59:43;;;;;;;;;;;17.80;73.50;;;;;;10382666;28;19934;-72
2022/11/25 21:04:44;;;;;;;;;;;17.80;73.50;;;;;;10382785;28;20357;-72
2022/11/25 21:09:46;;;;;;;;;;;17.80;73.70;;;;;;10384134;28;19969;-72
2022/11/25 21:14:49;;;;;;;;;;;17.80;73.60;;;;;;10382911;28;27227;-72
2022/11/25 21:19:51;;;;;;;;;;;17.80;73.50;;;;;;10383966;28;19933;-71
2022/11/25 21:24:53;;;;;;;;;;;17.70;73.50;;;;;;10383617;28;19940;-71
2022/11/25 21:29:55;;;;;;;;;;;17.70;73.50;;;;;;10384583;28;20420;-72
2022/11/25 21:34:57;;;;;;;;;;;17.70;73.40;;;;;;10382831;28;19940;-71
2022/11/25 21:39:59;;;;;;;;;;;17.70;73.40;;;;;;10382989;28;19940;-72
2022/11/25 21:45:00;;;;;;;;;;;17.60;73.20;;;;;;10383177;28;20033;-71
2022/11/25 21:50:10;;;;;;;;;;;17.60;73.30;;;;;;10383470;28;19940;-71
2022/11/25 21:55:12;;;;;;;;;;;17.50;73.10;;;;;;10383233;28;19977;-70
2022/11/25 22:00:19;;;;;;;;;;;17.50;73.00;;;;;;10384134;28;20384;-71
2022/11/25 22:05:22;;;;;;;;;;;17.50;72.90;;;;;;10383006;28;20419;-71
2022/11/25 22:10:24;;;;;;;;;;;17.40;73.00;;;;;;10383147;28;20036;-71
2022/11/25 22:15:26;;;;;;;;;;;17.40;72.90;;;;;;10381415;28;19981;-72
2022/11/25 22:20:29;;;;;;;;;;;17.40;72.90;;;;;;10381690;28;20013;-72
2022/11/25 22:25:31;;;;;;;;;;;17.40;72.80;;;;;;10383080;28;19965;-72
2022/11/25 22:30:33;;;;;;;;;;;17.30;72.80;;;;;;10383059;28;20499;-72
2022/11/25 22:35:34;;;;;;;;;;;17.30;72.60;;;;;;10382677;28;20022;-72
2022/11/25 22:40:36;;;;;;;;;;;17.30;72.60;;;;;;10383201;28;19933;-72
2022/11/25 22:45:38;;;;;;;;;;;17.30;72.60;;;;;;10381662;28;19941;-72
2022/11/25 22:50:40;;;;;;;;;;;17.20;72.50;;;;;;10382483;28;19945;-72
2022/11/25 22:55:42;;;;;;;;;;;17.20;72.40;;;;;;10380367;28;19940;-72
2022/11/25 23:00:45;;;;;;;;;;;17.20;72.50;;;;;;10381132;28;19940;-72
2022/11/25 23:05:48;;;;;;;;;;;17.20;72.40;;;;;;10363504;28;19934;-72
2022/11/25 23:10:50;;;;;;;;;;;17.20;72.40;;;;;;10381534;28;19940;-71
2022/11/25 23:15:53;;;;;;;;;;;17.10;72.40;;;;;;10380482;28;19956;-71
2022/11/25 23:20:55;;;;;;;;;;;17.10;72.30;;;;;;10381093;28;20451;-72
2022/11/25 23:25:57;;;;;;;;;;;17.10;72.20;;;;;;10381913;28;19934;-72
2022/11/25 23:30:59;;;;;;;;;;;17.10;72.20;;;;;;10387182;28;19940;-71
2022/11/25 23:36:01;;;;;;;;;;;17.10;72.20;;;;;;10388401;28;19961;-71
2022/11/25 23:41:12;;;;;;;;;;;17.00;72.10;;;;;;10388193;28;20005;-72
2022/11/25 23:46:15;;;;;;;;;;;17.00;72.20;;;;;;10388483;28;20056;-72
2022/11/25 23:51:17;;;;;;;;;;;17.00;72.10;;;;;;10369805;28;19937;-72
2022/11/25 23:56:19;;;;;;;;;;;17.00;72.10;;;;;;10388107;28;19934;-71
